sensor_id;sensor_type;location;lat;lon;timestamp;P1;P2;P0
76661;PMS5003;65579;45.534;6.212;2023-02-28T00:01:57;60;57;
76661;PMS5003;65579;45.534;6.212;2023-02-28T00:04:22;78;69;
76661;PMS5003;65579;45.534;6.212;2023-02-28T00:06:48;59;56;
76661;PMS5003;65579;45.534;6.212;2023-02-28T00:09:13;53;48;
76661;PMS5003;65579;45.534;6.212;2023-02-28T00:11:39;47;43;
76661;PMS5003;65579;45.534;6.212;2023-02-28T00:14:05;56;46;
76661;PMS5003;65579;45.534;6.212;2023-02-28T00:16:31;54;53;
76661;PMS5003;65579;45.534;6.212;2023-02-28T00:18:56;53;51;
76661;PMS5003;65579;45.534;6.212;2023-02-28T00:21:22;61;57;
76661;PMS5003;65579;45.534;6.212;2023-02-28T00:23:47;52;50;
76661;PMS5003;65579;45.534;6.212;2023-02-28T00:26:13;53;48;
76661;PMS5003;65579;45.534;6.212;2023-02-28T00:28:38;52;44;
76661;PMS5003;65579;45.534;6.212;2023-02-28T00:31:04;50;46;
76661;PMS5003;65579;45.534;6.212;2023-02-28T00:33:30;48;46;
76661;PMS5003;65579;45.534;6.212;2023-02-28T00:36:01;62;58;
76661;PMS5003;65579;45.534;6.212;2023-02-28T00:38:21;57;53;
76661;PMS5003;65579;45.534;6.212;2023-02-28T00:40:47;62;59;
76661;PMS5003;65579;45.534;6.212;2023-02-28T00:43:12;59;52;
76661;PMS5003;65579;45.534;6.212;2023-02-28T00:45:37;60;58;
76661;PMS5003;65579;45.534;6.212;2023-02-28T00:48:03;52;52;
76661;PMS5003;65579;45.534;6.212;2023-02-28T00:50:29;61;48;
76661;PMS5003;65579;45.534;6.212;2023-02-28T00:52:54;54;52;
76661;PMS5003;65579;45.534;6.212;2023-02-28T00:55:19;55;46;
76661;PMS5003;65579;45.534;6.212;2023-02-28T00:57:45;44;41;
76661;PMS5003;65579;45.534;6.212;2023-02-28T01:00:11;52;45;
76661;PMS5003;65579;45.534;6.212;2023-02-28T01:02:36;63;61;
76661;PMS5003;65579;45.534;6.212;2023-02-28T01:05:02;55;50;
76661;PMS5003;65579;45.534;6.212;2023-02-28T01:07:27;58;48;
76661;PMS5003;65579;45.534;6.212;2023-02-28T01:09:52;62;50;
76661;PMS5003;65579;45.534;6.212;2023-02-28T01:12:18;59;50;
76661;PMS5003;65579;45.534;6.212;2023-02-28T01:14:43;54;52;
76661;PMS5003;65579;45.534;6.212;2023-02-28T01:17:08;60;52;
76661;PMS5003;65579;45.534;6.212;2023-02-28T01:19:34;46;45;
76661;PMS5003;65579;45.534;6.212;2023-02-28T01:22:00;44;44;
76661;PMS5003;65579;45.534;6.212;2023-02-28T01:24:25;47;45;
76661;PMS5003;65579;45.534;6.212;2023-02-28T01:26:51;52;46;
76661;PMS5003;65579;45.534;6.212;2023-02-28T01:29:16;57;55;
76661;PMS5003;65579;45.534;6.212;2023-02-28T01:31:41;57;51;
76661;PMS5003;65579;45.534;6.212;2023-02-28T01:34:07;65;61;
76661;PMS5003;65579;45.534;6.212;2023-02-28T01:36:32;64;54;
76661;PMS5003;65579;45.534;6.212;2023-02-28T01:38:57;64;57;
76661;PMS5003;65579;45.534;6.212;2023-02-28T01:41:24;58;53;
76661;PMS5003;65579;45.534;6.212;2023-02-28T01:43:54;72;61;
76661;PMS5003;65579;45.534;6.212;2023-02-28T01:46:15;65;60;
76661;PMS5003;65579;45.534;6.212;2023-02-28T01:48:40;64;56;
76661;PMS5003;65579;45.534;6.212;2023-02-28T01:51:05;54;51;
76661;PMS5003;65579;45.534;6.212;2023-02-28T01:53:31;52;46;
76661;PMS5003;65579;45.534;6.212;2023-02-28T01:55:55;66;58;
76661;PMS5003;65579;45.534;6.212;2023-02-28T01:58:20;56;48;
76661;PMS5003;65579;45.534;6.212;2023-02-28T02:00:46;57;56;
76661;PMS5003;65579;45.534;6.212;2023-02-28T02:03:12;56;48;
76661;PMS5003;65579;45.534;6.212;2023-02-28T02:05:38;57;51;
76661;PMS5003;65579;45.534;6.212;2023-02-28T02:08:04;48;46;
76661;PMS5003;65579;45.534;6.212;2023-02-28T02:10:30;52;46;
76661;PMS5003;65579;45.534;6.212;2023-02-28T02:13:02;58;51;
76661;PMS5003;65579;45.534;6.212;2023-02-28T02:15:19;52;51;
76661;PMS5003;65579;45.534;6.212;2023-02-28T02:17:45;50;48;
76661;PMS5003;65579;45.534;6.212;2023-02-28T02:20:16;64;55;
76661;PMS5003;65579;45.534;6.212;2023-02-28T02:22:38;58;52;
76661;PMS5003;65579;45.534;6.212;2023-02-28T02:25:08;55;50;
76661;PMS5003;65579;45.534;6.212;2023-02-28T02:27:32;52;47;
76661;PMS5003;65579;45.534;6.212;2023-02-28T02:29:58;51;51;
76661;PMS5003;65579;45.534;6.212;2023-02-28T02:32:21;61;54;
76661;PMS5003;65579;45.534;6.212;2023-02-28T02:34:45;62;59;
76661;PMS5003;65579;45.534;6.212;2023-02-28T02:37:10;55;48;
76661;PMS5003;65579;45.534;6.212;2023-02-28T02:39:36;53;51;
76661;PMS5003;65579;45.534;6.212;2023-02-28T02:42:00;61;55;
76661;PMS5003;65579;45.534;6.212;2023-02-28T02:44:26;61;59;
76661;PMS5003;65579;45.534;6.212;2023-02-28T02:46:51;49;45;
76661;PMS5003;65579;45.534;6.212;2023-02-28T02:49:15;52;47;
76661;PMS5003;65579;45.534;6.212;2023-02-28T02:51:41;67;60;
76661;PMS5003;65579;45.534;6.212;2023-02-28T02:54:08;57;53;
76661;PMS5003;65579;45.534;6.212;2023-02-28T02:56:32;49;49;
76661;PMS5003;65579;45.534;6.212;2023-02-28T02:58:58;47;45;
76661;PMS5003;65579;45.534;6.212;2023-02-28T03:01:23;56;51;
76661;PMS5003;65579;45.534;6.212;2023-02-28T03:03:47;58;55;
76661;PMS5003;65579;45.534;6.212;2023-02-28T03:06:14;49;45;
76661;PMS5003;65579;45.534;6.212;2023-02-28T03:08:38;58;53;
76661;PMS5003;65579;45.534;6.212;2023-02-28T03:11:04;55;49;
76661;PMS5003;65579;45.534;6.212;2023-02-28T03:13:34;50;48;
76661;PMS5003;65579;45.534;6.212;2023-02-28T03:15:58;56;50;
76661;PMS5003;65579;45.534;6.212;2023-02-28T03:18:21;44;41;
76661;PMS5003;65579;45.534;6.212;2023-02-28T03:20:46;54;48;
76661;PMS5003;65579;45.534;6.212;2023-02-28T03:23:12;56;55;
76661;PMS5003;65579;45.534;6.212;2023-02-28T03:25:37;48;47;
76661;PMS5003;65579;45.534;6.212;2023-02-28T03:28:03;58;49;
76661;PMS5003;65579;45.534;6.212;2023-02-28T03:30:27;64;51;
76661;PMS5003;65579;45.534;6.212;2023-02-28T03:32:52;48;45;
76661;PMS5003;65579;45.534;6.212;2023-02-28T03:35:18;40;39;
76661;PMS5003;65579;45.534;6.212;2023-02-28T03:37:42;50;44;
76661;PMS5003;65579;45.534;6.212;2023-02-28T03:40:08;57;54;
76661;PMS5003;65579;45.534;6.212;2023-02-28T03:42:32;63;58;
76661;PMS5003;65579;45.534;6.212;2023-02-28T03:44:58;65;55;
76661;PMS5003;65579;45.534;6.212;2023-02-28T03:47:24;57;51;
76661;PMS5003;65579;45.534;6.212;2023-02-28T03:49:49;55;52;
76661;PMS5003;65579;45.534;6.212;2023-02-28T03:52:13;53;50;
76661;PMS5003;65579;45.534;6.212;2023-02-28T03:54:40;59;55;
76661;PMS5003;65579;45.534;6.212;2023-02-28T03:57:05;57;52;
76661;PMS5003;65579;45.534;6.212;2023-02-28T03:59:32;66;60;
76661;PMS5003;65579;45.534;6.212;2023-02-28T04:01:55;62;55;
76661;PMS5003;65579;45.534;6.212;2023-02-28T04:04:21;68;60;
76661;PMS5003;65579;45.534;6.212;2023-02-28T04:06:48;51;49;
76661;PMS5003;65579;45.534;6.212;2023-02-28T04:09:13;58;55;
76661;PMS5003;65579;45.534;6.212;2023-02-28T04:11:38;62;56;
76661;PMS5003;65579;45.534;6.212;2023-02-28T04:14:03;56;50;
76661;PMS5003;65579;45.534;6.212;2023-02-28T04:16:28;58;54;
76661;PMS5003;65579;45.534;6.212;2023-02-28T04:18:54;58;54;
76661;PMS5003;65579;45.534;6.212;2023-02-28T04:21:20;56;55;
76661;PMS5003;65579;45.534;6.212;2023-02-28T04:23:45;59;51;
76661;PMS5003;65579;45.534;6.212;2023-02-28T04:26:11;50;48;
76661;PMS5003;65579;45.534;6.212;2023-02-28T04:28:37;59;55;
76661;PMS5003;65579;45.534;6.212;2023-02-28T04:31:02;64;56;
76661;PMS5003;65579;45.534;6.212;2023-02-28T04:33:27;58;53;
76661;PMS5003;65579;45.534;6.212;2023-02-28T04:38:18;49;44;
76661;PMS5003;65579;45.534;6.212;2023-02-28T04:40:42;46;46;
76661;PMS5003;65579;45.534;6.212;2023-02-28T04:43:08;49;48;
76661;PMS5003;65579;45.534;6.212;2023-02-28T04:45:33;47;41;
76661;PMS5003;65579;45.534;6.212;2023-02-28T04:47:59;48;44;
76661;PMS5003;65579;45.534;6.212;2023-02-28T04:50:24;43;40;
76661;PMS5003;65579;45.534;6.212;2023-02-28T04:52:49;43;43;
76661;PMS5003;65579;45.534;6.212;2023-02-28T04:55:14;44;42;
76661;PMS5003;65579;45.534;6.212;2023-02-28T04:57:40;53;48;
76661;PMS5003;65579;45.534;6.212;2023-02-28T05:00:05;46;42;
76661;PMS5003;65579;45.534;6.212;2023-02-28T05:02:30;45;42;
76661;PMS5003;65579;45.534;6.212;2023-02-28T05:04:56;52;49;
76661;PMS5003;65579;45.534;6.212;2023-02-28T05:07:21;53;47;
76661;PMS5003;65579;45.534;6.212;2023-02-28T05:09:46;51;46;
76661;PMS5003;65579;45.534;6.212;2023-02-28T05:12:12;55;49;
76661;PMS5003;65579;45.534;6.212;2023-02-28T05:14:38;58;48;
76661;PMS5003;65579;45.534;6.212;2023-02-28T05:17:04;61;55;
76661;PMS5003;65579;45.534;6.212;2023-02-28T05:19:29;50;50;
76661;PMS5003;65579;45.534;6.212;2023-02-28T05:21:55;62;56;
76661;PMS5003;65579;45.534;6.212;2023-02-28T05:24:20;71;65;
76661;PMS5003;65579;45.534;6.212;2023-02-28T05:26:46;70;63;
76661;PMS5003;65579;45.534;6.212;2023-02-28T05:29:11;66;64;
76661;PMS5003;65579;45.534;6.212;2023-02-28T05:31:37;68;64;
76661;PMS5003;65579;45.534;6.212;2023-02-28T05:34:02;60;57;
76661;PMS5003;65579;45.534;6.212;2023-02-28T05:36:27;72;69;
76661;PMS5003;65579;45.534;6.212;2023-02-28T05:38:53;64;57;
76661;PMS5003;65579;45.534;6.212;2023-02-28T05:41:19;56;49;
76661;PMS5003;65579;45.534;6.212;2023-02-28T05:43:43;49;48;
76661;PMS5003;65579;45.534;6.212;2023-02-28T05:46:09;67;51;
76661;PMS5003;65579;45.534;6.212;2023-02-28T05:48:34;52;48;
76661;PMS5003;65579;45.534;6.212;2023-02-28T05:50:59;51;49;
76661;PMS5003;65579;45.534;6.212;2023-02-28T05:53:25;76;66;
76661;PMS5003;65579;45.534;6.212;2023-02-28T05:55:50;63;55;
76661;PMS5003;65579;45.534;6.212;2023-02-28T05:58:15;127;112;
76661;PMS5003;65579;45.534;6.212;2023-02-28T06:00:40;96;90;
76661;PMS5003;65579;45.534;6.212;2023-02-28T06:03:06;96;86;
76661;PMS5003;65579;45.534;6.212;2023-02-28T06:05:31;80;79;
76661;PMS5003;65579;45.534;6.212;2023-02-28T06:07:56;99;91;
76661;PMS5003;65579;45.534;6.212;2023-02-28T06:10:21;106;102;
76661;PMS5003;65579;45.534;6.212;2023-02-28T06:12:47;93;79;
76661;PMS5003;65579;45.534;6.212;2023-02-28T06:15:13;104;90;
76661;PMS5003;65579;45.534;6.212;2023-02-28T06:17:38;95;83;
76661;PMS5003;65579;45.534;6.212;2023-02-28T06:20:04;77;75;
76661;PMS5003;65579;45.534;6.212;2023-02-28T06:22:29;73;66;
76661;PMS5003;65579;45.534;6.212;2023-02-28T06:24:54;71;67;
76661;PMS5003;65579;45.534;6.212;2023-02-28T06:27:20;56;56;
76661;PMS5003;65579;45.534;6.212;2023-02-28T06:29:46;51;47;
76661;PMS5003;65579;45.534;6.212;2023-02-28T06:32:11;56;53;
76661;PMS5003;65579;45.534;6.212;2023-02-28T06:34:37;52;49;
76661;PMS5003;65579;45.534;6.212;2023-02-28T06:37:02;76;68;
76661;PMS5003;65579;45.534;6.212;2023-02-28T06:39:27;77;69;
76661;PMS5003;65579;45.534;6.212;2023-02-28T06:41:52;73;63;
76661;PMS5003;65579;45.534;6.212;2023-02-28T06:44:18;72;64;
76661;PMS5003;65579;45.534;6.212;2023-02-28T06:46:46;63;61;
76661;PMS5003;65579;45.534;6.212;2023-02-28T06:49:09;72;61;
76661;PMS5003;65579;45.534;6.212;2023-02-28T06:51:35;64;58;
76661;PMS5003;65579;45.534;6.212;2023-02-28T06:54:00;76;73;
76661;PMS5003;65579;45.534;6.212;2023-02-28T06:56:25;83;70;
76661;PMS5003;65579;45.534;6.212;2023-02-28T06:58:51;82;72;
76661;PMS5003;65579;45.534;6.212;2023-02-28T07:01:16;93;86;
76661;PMS5003;65579;45.534;6.212;2023-02-28T07:03:41;92;88;
76661;PMS5003;65579;45.534;6.212;2023-02-28T07:06:07;107;101;
76661;PMS5003;65579;45.534;6.212;2023-02-28T07:08:32;122;114;
76661;PMS5003;65579;45.534;6.212;2023-02-28T07:10:58;100;98;
76661;PMS5003;65579;45.534;6.212;2023-02-28T07:13:24;95;88;
76661;PMS5003;65579;45.534;6.212;2023-02-28T07:15:53;96;86;
76661;PMS5003;65579;45.534;6.212;2023-02-28T07:18:15;91;83;
76661;PMS5003;65579;45.534;6.212;2023-02-28T07:20:41;100;90;
76661;PMS5003;65579;45.534;6.212;2023-02-28T07:23:07;89;89;
76661;PMS5003;65579;45.534;6.212;2023-02-28T07:25:31;86;80;
76661;PMS5003;65579;45.534;6.212;2023-02-28T07:27:57;87;81;
76661;PMS5003;65579;45.534;6.212;2023-02-28T07:30:22;89;81;
76661;PMS5003;65579;45.534;6.212;2023-02-28T07:32:48;94;88;
76661;PMS5003;65579;45.534;6.212;2023-02-28T07:35:13;85;79;
76661;PMS5003;65579;45.534;6.212;2023-02-28T07:37:38;82;73;
76661;PMS5003;65579;45.534;6.212;2023-02-28T07:40:05;110;101;
76661;PMS5003;65579;45.534;6.212;2023-02-28T07:42:30;87;82;
76661;PMS5003;65579;45.534;6.212;2023-02-28T07:44:55;95;90;
76661;PMS5003;65579;45.534;6.212;2023-02-28T07:47:21;105;95;
76661;PMS5003;65579;45.534;6.212;2023-02-28T07:49:46;79;68;
76661;PMS5003;65579;45.534;6.212;2023-02-28T07:52:12;67;63;
76661;PMS5003;65579;45.534;6.212;2023-02-28T07:54:38;71;59;
76661;PMS5003;65579;45.534;6.212;2023-02-28T07:57:05;68;55;
76661;PMS5003;65579;45.534;6.212;2023-02-28T07:59:29;73;63;
76661;PMS5003;65579;45.534;6.212;2023-02-28T08:01:54;63;62;
76661;PMS5003;65579;45.534;6.212;2023-02-28T08:04:20;62;58;
76661;PMS5003;65579;45.534;6.212;2023-02-28T08:06:45;62;55;
76661;PMS5003;65579;45.534;6.212;2023-02-28T08:09:11;63;52;
76661;PMS5003;65579;45.534;6.212;2023-02-28T08:11:36;67;62;
76661;PMS5003;65579;45.534;6.212;2023-02-28T08:14:02;59;51;
76661;PMS5003;65579;45.534;6.212;2023-02-28T08:16:27;59;53;
76661;PMS5003;65579;45.534;6.212;2023-02-28T08:18:53;63;57;
76661;PMS5003;65579;45.534;6.212;2023-02-28T08:21:19;61;55;
76661;PMS5003;65579;45.534;6.212;2023-02-28T08:23:46;55;48;
76661;PMS5003;65579;45.534;6.212;2023-02-28T08:26:10;50;50;
76661;PMS5003;65579;45.534;6.212;2023-02-28T08:28:35;51;49;
76661;PMS5003;65579;45.534;6.212;2023-02-28T08:31:00;57;49;
76661;PMS5003;65579;45.534;6.212;2023-02-28T08:33:26;51;47;
76661;PMS5003;65579;45.534;6.212;2023-02-28T08:35:52;50;47;
76661;PMS5003;65579;45.534;6.212;2023-02-28T08:38:16;48;45;
76661;PMS5003;65579;45.534;6.212;2023-02-28T08:40:42;36;36;
76661;PMS5003;65579;45.534;6.212;2023-02-28T08:43:08;43;40;
76661;PMS5003;65579;45.534;6.212;2023-02-28T08:45:33;47;44;
76661;PMS5003;65579;45.534;6.212;2023-02-28T08:47:59;64;60;
76661;PMS5003;65579;45.534;6.212;2023-02-28T08:50:24;53;49;
76661;PMS5003;65579;45.534;6.212;2023-02-28T08:52:50;51;45;
76661;PMS5003;65579;45.534;6.212;2023-02-28T08:55:15;48;45;
76661;PMS5003;65579;45.534;6.212;2023-02-28T08:57:40;45;42;
76661;PMS5003;65579;45.534;6.212;2023-02-28T09:00:06;47;44;
76661;PMS5003;65579;45.534;6.212;2023-02-28T09:02:31;49;49;
76661;PMS5003;65579;45.534;6.212;2023-02-28T09:04:56;51;44;
76661;PMS5003;65579;45.534;6.212;2023-02-28T09:07:22;50;45;
76661;PMS5003;65579;45.534;6.212;2023-02-28T09:09:48;50;42;
76661;PMS5003;65579;45.534;6.212;2023-02-28T09:12:13;44;42;
76661;PMS5003;65579;45.534;6.212;2023-02-28T09:14:39;51;47;
76661;PMS5003;65579;45.534;6.212;2023-02-28T09:17:04;43;42;
76661;PMS5003;65579;45.534;6.212;2023-02-28T09:19:30;47;45;
76661;PMS5003;65579;45.534;6.212;2023-02-28T09:21:55;44;39;
76661;PMS5003;65579;45.534;6.212;2023-02-28T09:24:20;50;48;
76661;PMS5003;65579;45.534;6.212;2023-02-28T09:26:45;59;51;
76661;PMS5003;65579;45.534;6.212;2023-02-28T09:29:11;53;50;
76661;PMS5003;65579;45.534;6.212;2023-02-28T09:31:36;54;51;
76661;PMS5003;65579;45.534;6.212;2023-02-28T09:34:03;44;42;
76661;PMS5003;65579;45.534;6.212;2023-02-28T09:36:28;50;46;
76661;PMS5003;65579;45.534;6.212;2023-02-28T09:38:53;54;50;
76661;PMS5003;65579;45.534;6.212;2023-02-28T09:41:19;45;42;
76661;PMS5003;65579;45.534;6.212;2023-02-28T09:43:45;52;49;
76661;PMS5003;65579;45.534;6.212;2023-02-28T09:46:14;47;43;
76661;PMS5003;65579;45.534;6.212;2023-02-28T09:48:36;45;42;
76661;PMS5003;65579;45.534;6.212;2023-02-28T09:51:02;54;48;
76661;PMS5003;65579;45.534;6.212;2023-02-28T09:53:27;50;44;
76661;PMS5003;65579;45.534;6.212;2023-02-28T09:55:52;42;42;
76661;PMS5003;65579;45.534;6.212;2023-02-28T09:58:18;53;49;
76661;PMS5003;65579;45.534;6.212;2023-02-28T10:00:42;72;65;
76661;PMS5003;65579;45.534;6.212;2023-02-28T10:03:15;53;53;
76661;PMS5003;65579;45.534;6.212;2023-02-28T10:05:34;55;54;
76661;PMS5003;65579;45.534;6.212;2023-02-28T10:08:00;61;53;
76661;PMS5003;65579;45.534;6.212;2023-02-28T10:10:24;61;53;
76661;PMS5003;65579;45.534;6.212;2023-02-28T10:12:48;59;54;
76661;PMS5003;65579;45.534;6.212;2023-02-28T10:15:14;58;54;
76661;PMS5003;65579;45.534;6.212;2023-02-28T10:17:40;58;54;
76661;PMS5003;65579;45.534;6.212;2023-02-28T10:20:06;57;50;
76661;PMS5003;65579;45.534;6.212;2023-02-28T10:22:32;62;60;
76661;PMS5003;65579;45.534;6.212;2023-02-28T10:24:56;51;47;
76661;PMS5003;65579;45.534;6.212;2023-02-28T10:27:23;66;58;
76661;PMS5003;65579;45.534;6.212;2023-02-28T10:29:47;53;51;
76661;PMS5003;65579;45.534;6.212;2023-02-28T10:32:13;63;58;
76661;PMS5003;65579;45.534;6.212;2023-02-28T10:34:38;60;54;
76661;PMS5003;65579;45.534;6.212;2023-02-28T10:37:03;65;56;
76661;PMS5003;65579;45.534;6.212;2023-02-28T10:39:34;64;54;
76661;PMS5003;65579;45.534;6.212;2023-02-28T10:41:54;54;50;
76661;PMS5003;65579;45.534;6.212;2023-02-28T10:44:21;58;48;
76661;PMS5003;65579;45.534;6.212;2023-02-28T10:46:44;54;52;
76661;PMS5003;65579;45.534;6.212;2023-02-28T10:49:14;57;51;
76661;PMS5003;65579;45.534;6.212;2023-02-28T10:51:36;55;50;
76661;PMS5003;65579;45.534;6.212;2023-02-28T10:54:00;58;56;
76661;PMS5003;65579;45.534;6.212;2023-02-28T10:56:25;62;57;
76661;PMS5003;65579;45.534;6.212;2023-02-28T10:58:52;56;51;
76661;PMS5003;65579;45.534;6.212;2023-02-28T11:01:18;65;50;
76661;PMS5003;65579;45.534;6.212;2023-02-28T11:03:41;61;57;
76661;PMS5003;65579;45.534;6.212;2023-02-28T11:06:08;46;44;
76661;PMS5003;65579;45.534;6.212;2023-02-28T11:08:32;45;45;
76661;PMS5003;65579;45.534;6.212;2023-02-28T11:10:58;45;44;
76661;PMS5003;65579;45.534;6.212;2023-02-28T11:13:26;45;43;
76661;PMS5003;65579;45.534;6.212;2023-02-28T11:15:50;50;41;
76661;PMS5003;65579;45.534;6.212;2023-02-28T11:18:20;48;44;
76661;PMS5003;65579;45.534;6.212;2023-02-28T11:20:40;58;53;
76661;PMS5003;65579;45.534;6.212;2023-02-28T11:23:06;49;42;
76661;PMS5003;65579;45.534;6.212;2023-02-28T11:25:32;53;50;
76661;PMS5003;65579;45.534;6.212;2023-02-28T11:27:57;49;47;
76661;PMS5003;65579;45.534;6.212;2023-02-28T11:30:26;45;45;
76661;PMS5003;65579;45.534;6.212;2023-02-28T11:32:49;56;49;
76661;PMS5003;65579;45.534;6.212;2023-02-28T11:35:17;48;47;
76661;PMS5003;65579;45.534;6.212;2023-02-28T11:37:40;43;41;
76661;PMS5003;65579;45.534;6.212;2023-02-28T11:40:08;52;41;
76661;PMS5003;65579;45.534;6.212;2023-02-28T11:42:36;47;44;
76661;PMS5003;65579;45.534;6.212;2023-02-28T11:45:00;51;51;
76661;PMS5003;65579;45.534;6.212;2023-02-28T11:47:25;50;45;
76661;PMS5003;65579;45.534;6.212;2023-02-28T11:49:50;43;40;
76661;PMS5003;65579;45.534;6.212;2023-02-28T11:52:16;48;46;
76661;PMS5003;65579;45.534;6.212;2023-02-28T11:54:46;50;49;
76661;PMS5003;65579;45.534;6.212;2023-02-28T11:57:09;49;46;
76661;PMS5003;65579;45.534;6.212;2023-02-28T11:59:33;48;45;
76661;PMS5003;65579;45.534;6.212;2023-02-28T12:02:00;43;43;
76661;PMS5003;65579;45.534;6.212;2023-02-28T12:04:24;47;42;
76661;PMS5003;65579;45.534;6.212;2023-02-28T12:06:47;57;48;
76661;PMS5003;65579;45.534;6.212;2023-02-28T12:09:27;50;44;
76661;PMS5003;65579;45.534;6.212;2023-02-28T12:11:45;47;42;
76661;PMS5003;65579;45.534;6.212;2023-02-28T12:14:12;54;45;
76661;PMS5003;65579;45.534;6.212;2023-02-28T12:16:30;43;40;
76661;PMS5003;65579;45.534;6.212;2023-02-28T12:18:55;47;46;
76661;PMS5003;65579;45.534;6.212;2023-02-28T12:21:20;49;42;
76661;PMS5003;65579;45.534;6.212;2023-02-28T12:23:48;43;39;
76661;PMS5003;65579;45.534;6.212;2023-02-28T12:26:11;43;41;
76661;PMS5003;65579;45.534;6.212;2023-02-28T12:28:37;47;45;
76661;PMS5003;65579;45.534;6.212;2023-02-28T12:31:03;47;47;
76661;PMS5003;65579;45.534;6.212;2023-02-28T12:33:28;46;46;
76661;PMS5003;65579;45.534;6.212;2023-02-28T12:35:53;50;46;
76661;PMS5003;65579;45.534;6.212;2023-02-28T12:38:18;41;41;
76661;PMS5003;65579;45.534;6.212;2023-02-28T12:40:43;39;35;
76661;PMS5003;65579;45.534;6.212;2023-02-28T12:43:09;45;44;
76661;PMS5003;65579;45.534;6.212;2023-02-28T12:45:37;43;43;
76661;PMS5003;65579;45.534;6.212;2023-02-28T12:48:00;39;35;
76661;PMS5003;65579;45.534;6.212;2023-02-28T12:50:24;44;42;
76661;PMS5003;65579;45.534;6.212;2023-02-28T12:52:52;38;36;
76661;PMS5003;65579;45.534;6.212;2023-02-28T12:55:17;34;33;
76661;PMS5003;65579;45.534;6.212;2023-02-28T12:57:41;47;44;
76661;PMS5003;65579;45.534;6.212;2023-02-28T13:00:10;45;43;
76661;PMS5003;65579;45.534;6.212;2023-02-28T13:02:38;42;39;
76661;PMS5003;65579;45.534;6.212;2023-02-28T13:05:02;42;39;
76661;PMS5003;65579;45.534;6.212;2023-02-28T13:09:51;43;40;
76661;PMS5003;65579;45.534;6.212;2023-02-28T13:12:14;36;34;
76661;PMS5003;65579;45.534;6.212;2023-02-28T13:14:39;40;40;
76661;PMS5003;65579;45.534;6.212;2023-02-28T13:17:10;49;42;
76661;PMS5003;65579;45.534;6.212;2023-02-28T13:19:31;45;42;
76661;PMS5003;65579;45.534;6.212;2023-02-28T13:21:56;39;35;
76661;PMS5003;65579;45.534;6.212;2023-02-28T13:34:05;36;34;
76661;PMS5003;65579;45.534;6.212;2023-02-28T13:36:30;49;46;
76661;PMS5003;65579;45.534;6.212;2023-02-28T13:38:55;39;36;
76661;PMS5003;65579;45.534;6.212;2023-02-28T13:46:12;43;40;
76661;PMS5003;65579;45.534;6.212;2023-02-28T13:48:37;37;36;
76661;PMS5003;65579;45.534;6.212;2023-02-28T13:55:53;39;36;
76661;PMS5003;65579;45.534;6.212;2023-02-28T13:58:27;41;40;
76661;PMS5003;65579;45.534;6.212;2023-02-28T14:00:47;44;43;
76661;PMS5003;65579;45.534;6.212;2023-02-28T14:03:13;42;38;
76661;PMS5003;65579;45.534;6.212;2023-02-28T14:05:35;40;40;
76661;PMS5003;65579;45.534;6.212;2023-02-28T14:08:04;46;46;
76661;PMS5003;65579;45.534;6.212;2023-02-28T14:10:26;40;36;
76661;PMS5003;65579;45.534;6.212;2023-02-28T14:12:52;48;45;
76661;PMS5003;65579;45.534;6.212;2023-02-28T14:17:42;51;47;
76661;PMS5003;65579;45.534;6.212;2023-02-28T14:22:42;46;46;
76661;PMS5003;65579;45.534;6.212;2023-02-28T14:25:04;40;35;
76661;PMS5003;65579;45.534;6.212;2023-02-28T14:27:26;38;38;
76661;PMS5003;65579;45.534;6.212;2023-02-28T14:32:18;46;45;
76661;PMS5003;65579;45.534;6.212;2023-02-28T14:34:42;39;37;
76661;PMS5003;65579;45.534;6.212;2023-02-28T14:37:09;43;42;
76661;PMS5003;65579;45.534;6.212;2023-02-28T14:39:31;42;41;
76661;PMS5003;65579;45.534;6.212;2023-02-28T14:41:57;42;41;
76661;PMS5003;65579;45.534;6.212;2023-02-28T14:44:22;43;42;
76661;PMS5003;65579;45.534;6.212;2023-02-28T14:46:48;45;45;
76661;PMS5003;65579;45.534;6.212;2023-02-28T14:49:19;40;36;
76661;PMS5003;65579;45.534;6.212;2023-02-28T14:51:39;38;38;
76661;PMS5003;65579;45.534;6.212;2023-02-28T14:54:05;54;47;
76661;PMS5003;65579;45.534;6.212;2023-02-28T14:56:32;46;42;
76661;PMS5003;65579;45.534;6.212;2023-02-28T14:58:56;40;39;
76661;PMS5003;65579;45.534;6.212;2023-02-28T15:01:21;48;43;
76661;PMS5003;65579;45.534;6.212;2023-02-28T15:03:46;38;38;
76661;PMS5003;65579;45.534;6.212;2023-02-28T15:06:12;40;37;
76661;PMS5003;65579;45.534;6.212;2023-02-28T15:08:36;45;43;
76661;PMS5003;65579;45.534;6.212;2023-02-28T15:11:02;44;40;
76661;PMS5003;65579;45.534;6.212;2023-02-28T15:13:30;40;39;
76661;PMS5003;65579;45.534;6.212;2023-02-28T15:15:54;49;40;
76661;PMS5003;65579;45.534;6.212;2023-02-28T15:18:22;38;38;
76661;PMS5003;65579;45.534;6.212;2023-02-28T15:20:44;46;43;
76661;PMS5003;65579;45.534;6.212;2023-02-28T15:23:09;38;35;
76661;PMS5003;65579;45.534;6.212;2023-02-28T15:25:34;50;45;
76661;PMS5003;65579;45.534;6.212;2023-02-28T15:28:00;54;54;
76661;PMS5003;65579;45.534;6.212;2023-02-28T15:30:26;39;37;
76661;PMS5003;65579;45.534;6.212;2023-02-28T15:35:17;45;41;
76661;PMS5003;65579;45.534;6.212;2023-02-28T15:37:45;43;40;
76661;PMS5003;65579;45.534;6.212;2023-02-28T15:40:11;48;45;
76661;PMS5003;65579;45.534;6.212;2023-02-28T15:42:33;51;45;
76661;PMS5003;65579;45.534;6.212;2023-02-28T15:44:58;40;39;
76661;PMS5003;65579;45.534;6.212;2023-02-28T15:47:25;52;46;
76661;PMS5003;65579;45.534;6.212;2023-02-28T15:49:51;45;42;
76661;PMS5003;65579;45.534;6.212;2023-02-28T15:52:16;50;45;
76661;PMS5003;65579;45.534;6.212;2023-02-28T15:54:41;42;42;
76661;PMS5003;65579;45.534;6.212;2023-02-28T15:57:07;42;39;
76661;PMS5003;65579;45.534;6.212;2023-02-28T15:59:32;47;42;
76661;PMS5003;65579;45.534;6.212;2023-02-28T16:02:02;42;41;
76661;PMS5003;65579;45.534;6.212;2023-02-28T16:04:23;45;43;
76661;PMS5003;65579;45.534;6.212;2023-02-28T16:09:15;43;40;
76661;PMS5003;65579;45.534;6.212;2023-02-28T16:11:41;45;39;
76661;PMS5003;65579;45.534;6.212;2023-02-28T16:14:05;46;45;
76661;PMS5003;65579;45.534;6.212;2023-02-28T16:16:31;40;37;
76661;PMS5003;65579;45.534;6.212;2023-02-28T16:18:56;49;46;
76661;PMS5003;65579;45.534;6.212;2023-02-28T16:21:21;43;42;
76661;PMS5003;65579;45.534;6.212;2023-02-28T16:23:47;46;44;
76661;PMS5003;65579;45.534;6.212;2023-02-28T16:26:16;48;41;
76661;PMS5003;65579;45.534;6.212;2023-02-28T16:28:38;40;36;
76661;PMS5003;65579;45.534;6.212;2023-02-28T16:31:05;46;45;
76661;PMS5003;65579;45.534;6.212;2023-02-28T16:33:29;45;42;
76661;PMS5003;65579;45.534;6.212;2023-02-28T16:35:54;44;42;
76661;PMS5003;65579;45.534;6.212;2023-02-28T16:38:19;39;36;
76661;PMS5003;65579;45.534;6.212;2023-02-28T16:40:46;42;40;